Time;durP1;ratioP1;P1;durP2;ratioP2;P2;SDS_P1;SDS_P2;PMS_P1;PMS_P2;Temp;Humidity;BMP_temperature;BMP_pressure;BME280_temperature;BME280_humidity;BME280_pressure;Samples;Min_cycle;Max_cycle;Signal;HPM_P1;HPM_P2
2023/03/18 00:01:57;;;;;;;14.38;7.65;;;7.00;99.90;;;5.71;72.67;100591.50;4964992;28;20666;-84
2023/03/18 00:04:36;;;;;;;24.63;8.30;;;;;;;5.77;72.31;100585.25;4930464;28;20042;-85
2023/03/18 00:07:04;;;;;;;14.68;7.20;;;7.10;99.90;;;5.84;72.06;100581.53;4995361;23;20055;-87
2023/03/18 00:09:44;;;;;;;15.88;7.53;;;;;;;5.91;72.05;100584.84;4937031;28;20061;-86
2023/03/18 00:12:39;;;;;;;16.65;8.15;;;7.30;99.90;;;5.92;71.94;100582.19;4944167;28;20037;-87
2023/03/18 00:15:17;;;;;;;20.70;7.43;;;;;;;5.99;72.15;100589.88;4928458;28;20040;-86
2023/03/18 00:17:54;;;;;;;14.13;7.55;;;7.30;99.90;;;5.97;72.10;100589.91;4982179;28;20057;-86
2023/03/18 00:20:38;;;;;;;14.35;8.00;;;;;;;5.99;71.35;100595.09;4935442;28;20054;-86
2023/03/18 00:23:15;;;;;;;14.48;6.93;;;7.30;99.90;;;5.95;72.08;100582.09;4964561;28;20037;-87
2023/03/18 00:28:57;;;;;;;13.95;7.40;;;7.30;99.90;;;5.92;71.86;100579.56;5048013;22;20134;-87
2023/03/18 00:31:37;;;;;;;16.65;7.78;;;;;;;5.92;72.53;100584.78;4948051;28;20034;-87
2023/03/18 00:34:16;;;;;;;23.77;8.77;;;;;;;5.92;71.90;100587.41;4913513;28;20065;-87
2023/03/18 00:36:55;;;;;;;16.67;7.78;;;7.40;99.90;;;5.96;72.04;100590.78;4926018;28;20040;-87
2023/03/18 00:39:34;;;;;;;16.20;8.20;;;;;;;6.00;71.76;100596.81;4881867;29;20730;-87
2023/03/18 00:42:46;;;;;;;18.73;8.13;;;7.40;99.90;;;6.04;71.72;100588.81;4915043;28;20050;-88
2023/03/18 00:45:25;;;;;;;15.05;8.05;;;;;;;6.11;71.07;100587.75;4912643;28;20445;-87
2023/03/18 00:48:07;;;;;;;17.55;8.07;;;;;;;6.10;71.65;100593.03;4965371;23;20049;-88
2023/03/18 00:50:47;;;;;;;14.90;8.35;;;;;;;6.14;71.56;100595.50;5006963;28;20433;-87
2023/03/18 00:53:55;;;;;;;19.98;8.38;;;7.50;99.90;;;6.15;71.54;100589.38;4994810;28;20037;-87
2023/03/18 00:56:56;;;;;;;18.20;8.00;;;;;;;6.16;71.03;100585.84;5005092;28;20417;-87
2023/03/18 00:59:47;;;;;;;15.60;7.35;;;7.50;99.90;;;6.15;71.63;100581.53;4969180;28;20033;-88
2023/03/18 01:02:27;;;;;;;15.55;7.53;;;;;;;6.19;71.24;100584.88;5003201;28;20038;-87
2023/03/18 01:04:53;;;;;;;11.75;7.63;;;7.50;99.90;;;6.18;71.31;100584.94;5039176;28;20061;-85
2023/03/18 01:10:37;;;;;;;;;;;;;;;;;;;;;
2023/03/18 01:13:06;;;;;;;19.65;7.45;;;7.50;99.90;;;6.11;71.30;100579.91;4899346;28;20437;-86
2023/03/18 01:16:07;;;;;;;15.32;8.45;;;7.50;99.90;;;6.12;71.16;100571.16;4832754;29;20047;-87
2023/03/18 01:22:01;;;;;;;16.45;8.20;;;;;;;6.04;71.50;100572.28;4952698;28;20096;-87
2023/03/18 01:24:35;;;;;;;15.02;9.15;;;7.40;99.90;;;5.97;71.99;100574.22;4971166;28;20054;-86
2023/03/18 01:27:17;;;;;;;18.98;8.55;;;7.40;99.90;;;5.94;71.83;100567.34;4972767;23;20043;-87
2023/03/18 01:29:55;;;;;;;18.23;8.13;;;;;;;6.00;72.17;100565.44;4965344;28;20034;-86
2023/03/18 01:32:54;;;;;;;16.17;8.30;;;;;;;5.95;72.26;100561.19;4977490;28;20042;-87
2023/03/18 01:38:24;;;;;;;12.65;7.28;;;;;;;6.03;72.09;100549.69;4957894;28;20072;-85
2023/03/18 01:41:04;;;;;;;16.13;8.52;;;7.40;99.90;;;6.04;72.33;100548.75;4964299;28;20053;-88
2023/03/18 01:43:35;;;;;;;15.93;8.70;;;7.40;99.90;;;6.02;72.13;100537.50;4965356;23;20326;-78
2023/03/18 01:46:38;;;;;;;14.13;7.35;;;7.40;99.90;;;6.02;72.24;100535.72;4981543;28;20580;-78
2023/03/18 01:49:13;;;;;;;16.83;9.15;;;7.40;99.90;;;6.05;71.90;100526.97;5000128;28;20156;-78
2023/03/18 01:51:47;;;;;;;16.98;8.27;;;7.40;99.90;;;6.09;71.89;100524.19;4955886;28;20125;-78
2023/03/18 01:54:14;;;;;;;20.00;8.40;;;7.50;99.90;;;6.12;71.17;100531.09;4998082;28;20033;-78
2023/03/18 01:56:46;;;;;;;15.05;7.20;;;7.50;99.90;;;6.15;71.32;100520.53;4976831;28;20131;-78
2023/03/18 01:59:13;;;;;;;15.45;7.65;;;7.50;99.90;;;6.26;71.28;100533.25;4933892;28;20026;-78
2023/03/18 02:02:00;;;;;;;17.08;9.00;;;7.60;99.90;;;6.29;71.07;100525.34;4980903;28;20455;-79
2023/03/18 02:04:35;;;;;;;21.30;8.35;;;7.60;99.90;;;6.39;71.01;100531.09;4993699;28;20429;-78
2023/03/18 02:07:02;;;;;;;18.02;8.02;;;7.60;99.90;;;6.32;70.58;100526.06;4955286;28;20397;-78
2023/03/18 02:09:28;;;;;;;17.70;7.90;;;7.70;99.90;;;6.41;70.80;100530.16;4945663;28;20108;-75
2023/03/18 02:11:54;;;;;;;14.85;7.93;;;7.70;99.90;;;6.44;70.97;100539.69;4986257;28;20192;-75
2023/03/18 02:14:25;;;;;;;15.65;8.60;;;7.70;99.90;;;6.42;71.14;100546.72;4944566;28;20217;-76
2023/03/18 02:17:09;;;;;;;17.35;8.55;;;7.80;99.90;;;6.37;71.01;100559.91;4952310;28;20033;-76
2023/03/18 02:19:47;;;;;;;18.27;9.20;;;7.70;99.90;;;6.34;71.38;100565.25;4944927;28;21146;-75
2023/03/18 02:22:38;;;;;;;15.90;8.30;;;7.70;99.90;;;6.34;71.24;100567.88;4962388;28;20522;-76
2023/03/18 02:25:04;;;;;;;14.90;7.75;;;7.80;99.90;;;6.32;71.10;100564.44;4962930;28;20100;-75
2023/03/18 02:27:35;;;;;;;15.40;8.38;;;7.80;99.90;;;6.33;71.44;100564.41;4978573;28;20502;-76
2023/03/18 02:30:11;;;;;;;16.75;8.13;;;7.70;99.90;;;6.37;71.04;100565.13;4970023;28;20044;-75
2023/03/18 02:32:40;;;;;;;16.10;8.52;;;7.80;99.90;;;6.36;71.40;100564.28;4933143;28;20049;-75
2023/03/18 02:35:11;;;;;;;13.30;7.70;;;7.80;99.90;;;6.39;71.27;100558.09;4951054;28;20471;-76
2023/03/18 02:37:38;;;;;;;16.30;8.27;;;7.70;99.90;;;6.38;71.73;100563.41;4934513;28;20527;-75
2023/03/18 02:40:20;;;;;;;17.65;8.02;;;7.80;99.90;;;6.40;71.63;100562.44;4974905;28;20092;-75
2023/03/18 02:42:47;;;;;;;19.92;9.05;;;7.80;99.90;;;6.39;72.16;100562.50;4970294;28;20061;-75
2023/03/18 02:45:33;;;;;;;17.02;8.88;;;7.70;99.90;;;6.40;72.32;100558.97;4969145;28;20048;-75
2023/03/18 02:48:03;;;;;;;19.90;8.68;;;7.70;99.90;;;6.39;72.31;100558.09;4974439;28;20038;-75
2023/03/18 02:50:30;;;;;;;14.65;8.65;;;7.80;99.90;;;6.40;72.56;100564.22;4992303;28;20049;-76
2023/03/18 02:52:58;;;;;;;17.73;8.45;;;7.70;99.90;;;6.42;72.31;100565.03;4952837;28;20042;-75
2023/03/18 02:55:27;;;;;;;14.45;8.52;;;7.80;99.90;;;6.40;72.60;100564.22;4950971;28;20041;-76
2023/03/18 02:57:52;;;;;;;18.38;8.27;;;7.70;99.90;;;6.39;72.79;100567.72;4970499;28;20042;-76
2023/03/18 03:00:19;;;;;;;18.02;8.40;;;7.70;99.90;;;6.41;73.05;100568.53;4953067;28;20049;-76
2023/03/18 03:02:44;;;;;;;17.27;8.57;;;7.80;99.90;;;6.42;72.68;100567.63;4971982;28;20124;-75
2023/03/18 03:05:11;;;;;;;18.67;9.05;;;7.70;99.90;;;6.37;72.68;100573.00;4967065;28;20045;-76
2023/03/18 03:07:36;;;;;;;22.25;8.57;;;7.70;99.90;;;6.39;72.91;100567.72;4954856;28;20053;-75
2023/03/18 03:10:05;;;;;;;20.80;9.60;;;7.70;99.90;;;6.41;73.16;100568.53;4977031;28;20037;-76
2023/03/18 03:12:31;;;;;;;17.50;8.73;;;7.80;99.90;;;6.43;73.13;100574.56;4954896;28;20037;-76
2023/03/18 03:14:57;;;;;;;19.52;9.23;;;7.70;99.90;;;6.47;72.68;100570.94;4955937;28;20036;-75
2023/03/18 03:17:23;;;;;;;17.60;8.73;;;7.70;99.90;;;6.48;72.62;100575.25;4942678;28;20499;-76
2023/03/18 03:19:49;;;;;;;16.23;9.02;;;7.80;99.90;;;6.50;72.89;100568.22;4985308;28;20041;-76
2023/03/18 03:22:24;;;;;;;13.25;8.20;;;7.80;99.90;;;6.45;73.42;100562.28;4957053;28;20046;-75
2023/03/18 03:24:50;;;;;;;17.38;8.82;;;7.80;99.90;;;6.47;72.90;100561.34;4941272;28;20116;-76
2023/03/18 03:27:16;;;;;;;13.18;8.13;;;7.80;99.90;;;6.47;73.16;100556.09;4948015;28;20617;-75
2023/03/18 03:29:42;;;;;;;14.23;8.40;;;7.80;99.90;;;6.46;73.03;100559.63;4921581;28;20201;-76
2023/03/18 03:32:08;;;;;;;20.40;8.55;;;7.70;99.90;;;6.45;73.36;100554.44;4940662;28;20038;-76
2023/03/18 03:34:41;;;;;;;18.20;8.77;;;7.80;99.90;;;6.46;73.44;100553.56;4963461;28;20038;-75
2023/03/18 03:37:07;;;;;;;27.33;8.40;;;7.70;99.90;;;6.44;73.25;100556.22;4970921;28;20136;-76
2023/03/18 03:39:33;;;;;;;18.77;7.90;;;7.80;99.90;;;6.43;73.48;100553.66;4954554;28;20100;-76
2023/03/18 03:41:59;;;;;;;14.98;8.40;;;7.70;99.90;;;6.38;73.39;100561.63;4944997;28;20034;-76
2023/03/18 03:44:25;;;;;;;15.80;8.50;;;7.70;99.90;;;6.35;73.72;100561.75;4966311;28;20199;-75
2023/03/18 03:46:56;;;;;;;15.93;8.98;;;7.70;99.90;;;6.30;73.54;100554.03;4939754;28;20117;-76
2023/03/18 03:49:22;;;;;;;19.85;9.05;;;7.60;99.90;;;6.26;73.96;100556.78;4966020;28;20041;-76
2023/03/18 03:51:48;;;;;;;15.15;8.02;;;7.60;99.90;;;6.20;74.24;100562.19;4945417;28;20120;-76
2023/03/18 03:54:14;;;;;;;22.00;8.80;;;7.50;99.90;;;6.12;74.54;100554.63;4958765;28;20425;-75
2023/03/18 03:56:41;;;;;;;16.05;8.65;;;7.50;99.90;;;6.02;74.85;100550.56;4945359;28;20038;-76
2023/03/18 03:59:14;;;;;;;16.77;8.50;;;7.40;99.90;;;5.91;75.35;100540.41;4947685;28;20037;-75
2023/03/18 04:01:43;;;;;;;18.17;8.10;;;7.30;99.90;;;5.77;75.80;100548.66;4968566;28;20033;-76
2023/03/18 04:04:18;;;;;;;16.05;8.77;;;7.20;99.90;;;5.84;76.18;100534.50;4949286;28;20303;-76
2023/03/18 04:06:45;;;;;;;14.40;7.97;;;7.20;99.90;;;5.70;76.72;100531.44;4961041;28;20507;-75
2023/03/18 04:09:11;;;;;;;17.77;8.60;;;7.10;99.90;;;5.68;77.20;100528.00;4954286;28;20109;-76
2023/03/18 04:11:37;;;;;;;21.45;10.45;;;7.10;99.90;;;5.60;77.49;100537.84;4982031;28;20044;-75
2023/03/18 04:14:05;;;;;;;16.75;9.18;;;7.00;99.90;;;5.49;77.86;100536.41;4946827;28;20562;-76
2023/03/18 04:16:31;;;;;;;25.05;8.23;;;6.90;99.90;;;5.50;78.00;100551.16;4993441;28;20098;-76
2023/03/18 04:18:57;;;;;;;21.10;7.90;;;6.90;99.90;;;5.49;77.35;100549.47;4930564;28;20444;-75
2023/03/18 04:21:23;;;;;;;20.10;8.57;;;6.90;99.90;;;5.53;77.15;100556.31;4960703;28;20081;-76
2023/03/18 04:23:49;;;;;;;16.17;8.02;;;7.00;99.90;;;5.63;76.77;100556.03;4981406;28;20087;-76
2023/03/18 04:26:14;;;;;;;13.80;7.88;;;7.00;99.90;;;5.70;76.82;100562.78;5003893;28;20069;-76
2023/03/18 04:28:40;;;;;;;14.52;8.13;;;7.10;99.90;;;5.74;76.48;100561.81;4944063;28;20053;-76
2023/03/18 04:31:07;;;;;;;15.43;8.70;;;7.10;99.90;;;5.79;76.47;100569.50;4961145;28;20034;-75
2023/03/18 04:33:40;;;;;;;17.70;8.93;;;7.10;99.90;;;5.80;76.71;100569.47;4965836;28;20025;-76
2023/03/18 04:36:08;;;;;;;16.30;7.75;;;7.10;99.90;;;5.74;76.68;100556.56;4968071;28;20092;-76
2023/03/18 04:38:41;;;;;;;19.10;9.45;;;7.10;99.90;;;5.77;76.97;100564.34;4958092;28;20117;-76
2023/03/18 04:41:07;;;;;;;15.75;8.75;;;7.10;99.90;;;5.74;76.51;100561.81;4977397;28;20112;-75
2023/03/18 04:43:33;;;;;;;19.58;8.32;;;7.10;99.90;;;5.76;76.26;100573.06;4978079;28;20049;-76
2023/03/18 04:45:59;;;;;;;17.27;9.07;;;7.10;99.90;;;5.75;76.46;100561.75;4932514;28;20498;-76
2023/03/18 04:48:25;;;;;;;14.38;8.90;;;7.10;99.90;;;5.71;76.57;100562.75;4989892;28;20485;-75
2023/03/18 04:50:56;;;;;;;20.70;7.90;;;7.10;99.90;;;5.64;76.77;100555.16;4956422;28;20034;-76
2023/03/18 04:53:23;;;;;;;17.23;8.82;;;7.10;99.90;;;5.65;77.28;100543.78;4980890;28;20084;-76
2023/03/18 04:55:50;;;;;;;15.20;8.35;;;7.00;99.90;;;5.61;77.39;100543.00;4940795;28;20518;-76
2023/03/18 04:58:16;;;;;;;19.27;9.55;;;7.00;99.90;;;5.57;78.35;100548.38;4964467;28;20121;-75
2023/03/18 05:00:42;;;;;;;13.55;8.30;;;6.90;99.90;;;5.37;78.67;100534.13;4976447;28;20101;-75
2023/03/18 05:03:11;;;;;;;17.60;8.43;;;6.80;99.90;;;5.30;78.86;100543.03;4970627;28;20419;-76
2023/03/18 05:05:37;;;;;;;15.45;7.82;;;6.80;99.90;;;5.31;78.53;100535.19;4938184;28;20041;-75
2023/03/18 05:08:03;;;;;;;14.80;7.88;;;6.80;99.90;;;5.28;78.68;100534.41;4976588;28;20680;-76
2023/03/18 05:10:28;;;;;;;14.40;7.72;;;6.80;99.90;;;5.33;78.60;100530.78;4980089;28;20394;-76
2023/03/18 05:12:54;;;;;;;20.38;7.82;;;6.80;99.90;;;5.34;77.92;100529.00;4972082;28;20039;-76
2023/03/18 05:15:20;;;;;;;16.50;7.85;;;6.80;99.90;;;5.41;77.59;100524.47;4944182;28;20506;-76
2023/03/18 05:17:52;;;;;;;20.67;8.20;;;6.90;99.90;;;5.51;77.30;100547.66;4972767;28;20038;-75
2023/03/18 05:20:18;;;;;;;15.10;8.25;;;6.90;99.90;;;5.57;77.05;100554.44;4954166;28;20044;-75
2023/03/18 05:22:44;;;;;;;16.00;7.57;;;6.90;99.90;;;5.53;77.36;100547.63;4975779;28;20073;-75
2023/03/18 05:25:11;;;;;;;20.45;8.85;;;7.00;99.90;;;5.59;77.44;100560.50;4979733;28;20042;-76
2023/03/18 05:27:41;;;;;;;16.02;8.38;;;7.00;99.90;;;5.62;77.95;100554.34;4965474;28;20081;-75
2023/03/18 05:30:09;;;;;;;17.58;8.25;;;7.00;99.90;;;5.62;77.76;100556.97;4917018;28;20034;-75
2023/03/18 05:32:35;;;;;;;20.17;8.40;;;7.00;99.90;;;5.68;77.51;100567.19;4985479;28;21265;-75
2023/03/18 05:35:02;;;;;;;23.65;9.40;;;7.00;99.90;;;5.66;77.61;100567.28;4965325;28;20080;-76
2023/03/18 05:37:28;;;;;;;16.70;8.52;;;7.00;99.90;;;5.64;77.67;100563.00;4955577;28;20523;-76
2023/03/18 05:39:54;;;;;;;16.95;9.20;;;7.00;99.90;;;5.61;77.53;100547.38;4994285;28;20674;-75
2023/03/18 05:42:23;;;;;;;15.55;8.20;;;7.00;99.90;;;5.66;77.69;100553.31;4948294;28;20078;-75
2023/03/18 05:44:49;;;;;;;13.05;7.50;;;7.00;99.90;;;5.59;78.23;100549.19;4976346;28;20049;-76
2023/03/18 05:47:15;;;;;;;18.73;8.27;;;7.00;99.90;;;5.66;77.88;100567.28;4992706;28;20120;-75
2023/03/18 05:49:41;;;;;;;20.67;8.30;;;7.10;99.90;;;5.68;77.14;100575.03;4966080;28;20049;-75
2023/03/18 05:52:09;;;;;;;13.20;8.18;;;7.10;99.90;;;5.67;77.08;100576.81;4999713;28;20049;-75
2023/03/18 05:54:39;;;;;;;18.38;8.55;;;7.10;99.90;;;5.67;77.91;100579.41;4969633;28;20537;-76
2023/03/18 05:57:06;;;;;;;17.55;8.00;;;7.10;99.90;;;5.66;77.97;100571.63;4974245;28;20045;-75
2023/03/18 05:59:32;;;;;;;22.00;8.43;;;7.10;99.90;;;5.70;77.96;100581.06;4971554;28;20083;-76
2023/03/18 06:01:57;;;;;;;20.58;8.38;;;7.10;99.90;;;5.70;78.22;100584.56;4953772;28;20038;-74
2023/03/18 06:04:23;;;;;;;19.20;8.70;;;7.10;99.90;;;5.70;78.22;100578.47;4978841;28;20038;-76
2023/03/18 06:06:52;;;;;;;19.48;7.43;;;7.10;99.90;;;5.65;78.55;100575.13;4985295;28;20029;-77
2023/03/18 06:09:18;;;;;;;18.33;8.48;;;7.10;99.90;;;5.73;78.03;100576.63;4944766;28;20033;-75
2023/03/18 06:11:44;;;;;;;18.35;8.55;;;7.10;99.90;;;5.80;77.74;100579.91;4964997;28;20048;-75
2023/03/18 06:14:11;;;;;;;17.75;7.93;;;7.10;99.90;;;5.85;77.50;100574.56;4975303;28;20113;-76
2023/03/18 06:16:37;;;;;;;16.48;8.00;;;7.20;99.90;;;5.93;76.94;100578.66;4982996;28;20125;-76
2023/03/18 06:19:03;;;;;;;16.85;7.75;;;7.30;99.90;;;5.99;76.29;100568.97;4975036;28;20116;-76
2023/03/18 06:21:32;;;;;;;16.73;7.75;;;7.30;99.90;;;6.11;76.50;100572.06;4990310;28;20037;-76
2023/03/18 06:24:01;;;;;;;14.00;7.75;;;7.40;99.90;;;6.21;75.79;100575.25;4969862;28;20562;-76
2023/03/18 06:26:27;;;;;;;15.98;7.63;;;7.40;99.90;;;6.21;75.34;100575.25;4950482;28;20037;-76
2023/03/18 06:28:53;;;;;;;13.85;7.70;;;7.50;99.90;;;6.29;75.17;100582.84;5004232;28;20660;-76
2023/03/18 06:31:20;;;;;;;15.32;8.10;;;7.60;99.90;;;6.47;74.62;100581.41;4966993;28;20113;-76
2023/03/18 06:33:46;;;;;;;14.57;7.43;;;7.70;99.90;;;6.81;74.17;100588.19;4976978;28;20056;-75
2023/03/18 06:36:15;;;;;;;15.23;7.95;;;7.90;99.90;;;7.24;72.98;100594.56;4951335;28;20050;-76
2023/03/18 06:38:41;;;;;;;18.63;7.70;;;8.10;99.90;;;7.57;71.89;100593.34;4961380;28;20046;-76
2023/03/18 06:41:07;;;;;;;13.65;7.93;;;8.30;99.90;;;8.14;71.28;100598.25;4945793;28;20696;-75
2023/03/18 06:43:34;;;;;;;12.68;8.02;;;8.70;99.90;;;9.69;67.82;100601.47;4985947;28;20038;-76
2023/03/18 06:45:59;;;;;;;19.88;7.85;;;9.40;99.90;;;12.88;60.74;100630.00;4950076;28;20160;-76
2023/03/18 06:48:35;;;;;;;15.10;7.35;;;10.50;99.90;;;14.84;54.88;100644.50;4995427;28;20046;-76
2023/03/18 06:51:01;;;;;;;18.40;7.77;;;11.80;99.90;;;16.99;50.05;100675.53;4972090;28;20041;-76
2023/03/18 06:53:27;;;;;;;17.23;7.72;;;13.10;99.90;;;18.42;46.21;100679.66;4939656;28;20415;-76
2023/03/18 06:55:56;;;;;;;16.60;7.45;;;14.40;99.90;;;19.81;43.72;100687.78;4944662;28;20046;-76
2023/03/18 06:58:25;;;;;;;14.27;6.78;;;15.50;99.90;;;20.97;41.33;100700.72;4983584;28;20033;-76
2023/03/18 07:00:51;;;;;;;13.52;7.10;;;16.60;99.90;;;20.78;40.66;100696.19;4976462;28;20037;-76
2023/03/18 07:03:17;;;;;;;23.02;7.32;;;17.00;98.20;;;18.37;42.73;100673.84;4966355;28;20042;-76
2023/03/18 07:05:43;;;;;;;16.02;7.05;;;16.50;97.80;;;15.43;47.71;100641.47;4984123;28;20068;-77
2023/03/18 07:08:16;;;;;;;15.90;7.05;;;15.90;98.90;;;14.77;50.14;100652.88;4965724;28;20099;-76
2023/03/18 07:10:42;;;;;;;14.43;7.35;;;15.10;99.60;;;14.11;51.92;100658.84;4934816;28;20117;-75
2023/03/18 07:13:09;;;;;;;18.65;8.07;;;14.60;99.80;;;14.41;51.62;100656.06;4941963;28;20044;-76
2023/03/18 07:15:37;;;;;;;15.02;7.53;;;14.60;99.90;;;17.57;47.00;100698.72;4955997;28;20038;-77
2023/03/18 07:18:08;;;;;;;14.77;7.07;;;15.40;99.30;;;19.27;43.21;100717.16;5005420;28;20478;-76
2023/03/18 07:20:35;;;;;;;14.07;6.63;;;16.60;98.00;;;20.37;40.83;100715.91;4961994;28;20045;-75
2023/03/18 07:23:02;;;;;;;13.70;6.47;;;17.40;96.50;;;19.93;41.11;100707.25;4957150;28;20113;-76
2023/03/18 07:25:30;;;;;;;11.85;6.57;;;18.20;95.40;;;21.11;39.67;100726.22;4963693;28;20375;-77
2023/03/18 07:27:59;;;;;;;16.65;6.82;;;19.00;94.50;;;21.72;38.51;100738.47;4964583;28;20105;-76
2023/03/18 07:30:26;;;;;;;14.07;6.35;;;19.70;93.30;;;22.20;37.42;100742.91;4926183;28;20031;-76
2023/03/18 07:32:52;;;;;;;12.48;6.53;;;20.50;93.90;;;23.12;36.82;100762.66;4981292;28;20109;-77
2023/03/18 07:35:18;;;;;;;15.18;7.10;;;21.30;93.30;;;23.49;36.53;100777.78;4949694;28;20517;-77
2023/03/18 07:37:44;;;;;;;17.67;7.10;;;21.80;92.00;;;22.73;37.10;100768.25;4954212;28;20042;-77
2023/03/18 07:40:15;;;;;;;12.23;6.80;;;22.10;91.70;;;23.27;36.66;100777.25;4982332;28;20035;-78
2023/03/18 07:42:41;;;;;;;15.88;7.05;;;22.20;90.80;;;22.42;37.29;100767.66;4951145;28;20092;-76
2023/03/18 07:45:09;;;;;;;20.15;10.88;;;22.10;91.10;;;22.36;37.74;100765.59;4955686;28;20129;-76
2023/03/18 07:47:35;;;;;;;12.80;6.60;;;22.20;90.40;;;22.06;37.48;100775.53;4951309;28;20421;-76
2023/03/18 07:50:01;;;;;;;19.90;6.90;;;22.00;90.70;;;21.12;38.95;100759.19;4946154;28;20045;-77
2023/03/18 07:52:34;;;;;;;12.98;7.00;;;21.40;90.30;;;19.67;40.77;100750.34;4932191;28;20117;-77
2023/03/18 07:55:00;;;;;;;13.38;6.72;;;20.70;90.60;;;19.46;41.11;100750.34;4950189;28;20037;-76
2023/03/18 07:57:26;;;;;;;14.35;7.10;;;20.20;91.50;;;19.57;41.28;100754.81;4973347;28;20116;-78
2023/03/18 07:59:52;;;;;;;12.98;7.00;;;20.00;91.60;;;19.36;41.61;100755.59;4989316;28;20038;-79
2023/03/18 08:02:27;;;;;;;17.73;6.68;;;19.90;91.90;;;18.90;42.38;100745.19;4953996;28;20383;-79
2023/03/18 08:04:53;;;;;;;13.02;6.55;;;19.40;91.50;;;18.02;43.14;100736.13;4913723;28;20034;-79
2023/03/18 08:07:19;;;;;;;26.70;7.40;;;18.90;92.60;;;17.17;45.08;100736.31;4963837;28;20405;-79
2023/03/18 08:09:45;;;;;;;13.02;6.82;;;18.20;93.70;;;16.48;46.72;100726.22;4949979;28;20038;-78
2023/03/18 08:12:19;;;;;;;12.50;7.05;;;17.60;94.10;;;16.07;47.68;100729.97;4918389;28;20168;-79
2023/03/18 08:14:44;;;;;;;14.88;7.57;;;17.20;94.80;;;15.89;47.63;100728.59;4945541;28;20042;-80
2023/03/18 08:17:10;;;;;;;13.50;7.10;;;17.00;95.30;;;15.92;47.95;100739.00;4965436;28;20101;-80
2023/03/18 08:19:36;;;;;;;15.93;6.72;;;16.80;95.80;;;15.85;48.81;100741.22;4972540;28;20033;-79
2023/03/18 08:22:05;;;;;;;13.10;7.47;;;16.80;96.20;;;16.07;48.51;100740.59;4975413;28;20042;-82
2023/03/18 08:24:31;;;;;;;16.17;7.15;;;16.80;95.60;;;16.07;47.45;100737.06;4953826;28;20042;-80
2023/03/18 08:26:57;;;;;;;20.58;6.93;;;16.90;96.00;;;16.08;48.31;100744.94;4950098;28;20029;-79
2023/03/18 08:29:23;;;;;;;15.20;6.88;;;16.80;95.80;;;15.88;48.21;100750.78;4975617;28;20037;-79
2023/03/18 08:31:50;;;;;;;17.70;7.28;;;16.70;96.30;;;15.67;49.42;100751.25;4986503;28;20041;-81
2023/03/18 08:34:15;;;;;;;13.32;6.97;;;16.50;96.50;;;15.28;50.01;100747.66;4929530;28;20080;-82
2023/03/18 08:36:44;;;;;;;15.70;6.97;;;16.20;96.50;;;14.67;50.53;100741.88;4918987;28;20021;-79
2023/03/18 08:39:13;;;;;;;13.45;7.72;;;15.70;96.80;;;14.05;51.98;100738.66;4964339;28;21201;-78
2023/03/18 08:41:39;;;;;;;18.15;7.45;;;15.30;97.60;;;13.67;53.00;100739.16;4929100;28;21047;-78
2023/03/18 08:44:07;;;;;;;17.15;7.68;;;14.90;98.30;;;13.42;54.33;100745.03;4951855;28;20033;-77
2023/03/18 08:46:33;;;;;;;12.43;7.30;;;14.60;99.20;;;13.33;55.03;100744.63;4970583;28;20083;-78
2023/03/18 08:49:09;;;;;;;17.98;8.07;;;14.50;99.50;;;13.18;55.36;100737.56;4980361;28;20041;-78
2023/03/18 08:51:35;;;;;;;14.05;7.20;;;14.20;99.80;;;12.89;55.93;100748.00;4977599;28;20037;-78
2023/03/18 08:54:01;;;;;;;14.52;7.28;;;14.10;99.90;;;12.74;56.26;100746.19;4952755;28;20042;-78
2023/03/18 08:56:34;;;;;;;17.25;8.13;;;13.90;99.90;;;12.58;57.20;100743.53;4944097;28;20479;-79
2023/03/18 08:59:00;;;;;;;14.82;8.18;;;13.70;99.90;;;12.52;57.26;100743.88;4972156;28;20848;-78
2023/03/18 09:01:26;;;;;;;14.40;7.60;;;13.70;99.90;;;12.50;57.36;100740.47;5005421;28;20125;-78
2023/03/18 09:03:55;;;;;;;15.93;7.72;;;13.60;99.90;;;12.56;57.87;100739.28;4980195;28;20030;-78
2023/03/18 09:06:23;;;;;;;22.05;8.25;;;13.70;99.90;;;12.64;57.82;100737.06;4954261;28;20030;-79
2023/03/18 09:08:49;;;;;;;16.55;8.38;;;13.70;99.90;;;12.72;57.50;100740.13;4973216;28;20034;-78
2023/03/18 09:11:17;;;;;;;20.40;7.75;;;13.70;99.90;;;12.72;57.90;100745.41;4981315;28;20034;-79
2023/03/18 09:13:43;;;;;;;13.52;7.38;;;13.80;99.90;;;12.81;57.84;100749.38;4976329;28;20056;-77
2023/03/18 09:16:17;;;;;;;14.65;7.55;;;13.80;99.90;;;12.99;57.50;100742.19;4941525;28;20903;-79
2023/03/18 09:18:46;;;;;;;20.02;8.23;;;13.90;99.90;;;13.21;57.99;100749.75;4932470;28;20489;-77
2023/03/18 09:21:12;;;;;;;14.82;8.50;;;14.10;99.90;;;13.26;57.65;100751.19;4940817;28;20433;-79
2023/03/18 09:23:44;;;;;;;16.50;7.93;;;14.10;99.90;;;13.27;57.19;100752.03;4970245;28;20041;-78
2023/03/18 09:26:11;;;;;;;16.38;7.13;;;14.20;99.90;;;13.26;57.17;100743.25;4998408;28;20556;-78
2023/03/18 09:28:37;;;;;;;14.75;7.68;;;14.20;99.90;;;13.32;57.52;100750.84;4969513;28;20050;-79
2023/03/18 09:31:04;;;;;;;14.77;7.90;;;14.30;99.90;;;13.39;57.67;100754.03;4951534;28;20038;-78
2023/03/18 09:33:35;;;;;;;16.65;7.85;;;14.40;99.90;;;13.46;57.10;100763.28;4975396;28;20472;-77
2023/03/18 09:36:08;;;;;;;20.38;8.10;;;14.40;99.90;;;13.64;56.94;100756.06;4995046;28;20410;-78
2023/03/18 09:38:41;;;;;;;18.23;8.15;;;14.60;99.90;;;13.78;56.46;100762.31;4960175;28;20034;-78
2023/03/18 09:41:28;;;;;;;14.85;7.45;;;14.70;99.90;;;14.04;56.61;100753.69;4979303;28;20037;-76
2023/03/18 09:44:16;;;;;;;15.15;7.63;;;14.90;99.90;;;14.40;55.99;100759.47;4975183;28;20046;-76
2023/03/18 09:47:06;;;;;;;16.25;7.63;;;15.20;99.90;;;14.59;55.41;100756.56;5000690;28;20042;-75
2023/03/18 09:50:08;;;;;;;14.20;7.82;;;15.40;99.90;;;14.79;54.78;100756.13;4968749;28;20102;-76
2023/03/18 09:53:38;;;;;;;17.20;7.85;;;15.50;99.90;;;14.66;55.09;100756.06;5003404;28;20042;-76
2023/03/18 09:56:22;;;;;;;15.23;8.05;;;15.50;99.90;;;14.52;55.45;100748.97;4925713;28;20050;-76
2023/03/18 09:59:10;;;;;;;18.63;8.27;;;15.40;99.90;;;14.38;55.54;100756.91;4961942;28;20076;-75
2023/03/18 10:01:42;;;;;;;15.52;7.97;;;15.30;99.90;;;14.32;56.29;100754.66;4990714;28;20034;-75
2023/03/18 10:04:32;;;;;;;19.17;7.88;;;15.30;99.90;;;14.33;56.56;100759.00;4987354;28;20083;-76
2023/03/18 10:07:11;;;;;;;13.73;7.35;;;15.30;99.90;;;14.41;56.74;100764.69;4991597;28;20099;-76
2023/03/18 10:09:54;;;;;;;17.20;8.27;;;15.30;99.90;;;14.55;56.53;100769.97;4968863;28;20397;-75
2023/03/18 10:12:44;;;;;;;17.73;7.88;;;15.40;99.90;;;14.68;56.23;100763.91;4998254;28;20120;-75
2023/03/18 10:15:37;;;;;;;16.48;6.97;;;15.50;99.90;;;14.60;55.80;100768.84;4962542;28;20612;-76
2023/03/18 10:18:38;;;;;;;14.43;7.72;;;15.50;99.90;;;14.62;56.44;100770.47;4981242;28;20091;-76
2023/03/18 10:21:14;;;;;;;17.30;7.88;;;15.50;99.90;;;14.60;56.95;100760.91;4996051;28;20561;-79
2023/03/18 10:24:15;;;;;;;13.52;8.02;;;15.50;99.90;;;14.73;56.79;100764.50;4975176;28;20045;-76
2023/03/18 10:26:56;;;;;;;16.48;7.90;;;15.60;99.90;;;14.84;56.89;100764.66;4990057;28;20041;-76
2023/03/18 10:29:28;;;;;;;15.98;8.43;;;15.70;99.90;;;15.06;56.54;100771.25;4982579;28;20038;-76
2023/03/18 10:32:34;;;;;;;17.02;8.10;;;15.80;99.90;;;15.06;56.80;100773.88;5001974;28;20039;-76
2023/03/18 10:35:58;;;;;;;13.00;8.00;;;15.90;99.90;;;15.08;57.11;100767.53;4988299;28;20044;-76
2023/03/18 10:38:39;;;;;;;15.18;8.40;;;16.00;99.90;;;15.25;57.21;100773.53;4970464;28;20049;-76
2023/03/18 10:41:37;;;;;;;17.13;8.27;;;16.10;99.90;;;15.49;56.54;100777.22;4989652;28;20030;-76
2023/03/18 10:44:24;;;;;;;14.50;7.93;;;16.20;99.90;;;15.66;56.56;100783.19;4976001;28;20610;-76
2023/03/18 10:47:30;;;;;;;14.30;8.45;;;16.50;99.90;;;15.74;56.22;100787.09;4960607;28;20521;-76
2023/03/18 10:50:17;;;;;;;15.93;8.70;;;16.60;99.90;;;15.70;56.68;100790.00;4978409;28;20041;-76
2023/03/18 10:53:18;;;;;;;14.82;8.48;;;16.60;99.90;;;15.78;56.58;100777.94;5009543;28;20030;-76
2023/03/18 10:55:59;;;;;;;15.13;8.75;;;16.70;99.90;;;16.02;56.59;100779.88;4962575;28;20034;-76